Aeroporto :
LOGIN :

Iscrizione | Disclaimer

   EN    FR    IT 

 










Sommario :    VFR   VFR Marginale   IFR   IFR Intensivo   IFR Molto Intensivo
Visibilità : 
Base nubi : 
>= 8 km
>= 3000ft
5 / 8 km
1000 / 3000 ft
1500m / 5 km
500 / 1000 ft
800 / 1500m
200 / 500 ft
< 800m
< 200 ft
Simboli :   Temporali  Nebbia  Neve Forte  Precipitazioni Forti  Vento > 20 kt
SIGMETs :   Varie  Temporali  Ghiacco  Turbolenza  Onda orograficha  Ceneri Vulcaniche







- Altitudine del aeroporto : 101 ft
- Codice IATA : GLO
- Carte del aeroporto


EGBJ - Gloucestershire

ULTIMO METAR :
  • 161120Z 22005KT 190V260 9999 FEW012 SCT022 12/10 Q1021

METARs OBSOLETI :
  • 161050Z 21002KT 9999 FEW013 SCT028 12/10 Q1021
  • 161020Z 22005KT 190V250 9999 FEW015 SCT028 11/09 Q1021
  • 160950Z 21005KT 9999 FEW020 SCT028 11/09 Q1021
  • 160920Z 21004KT 9999 FEW015 SCT022 11/09 Q1021
  • 160850Z 21004KT 9999 FEW010 BKN020 10/09 Q1021

TAF TAF EGBJ
Valido dal 16 a 12 ore il 16 a 19 ore UTC


161102Z 1612/1619 20007KT 9999 FEW015 SCT025
PROB30
TEMPO 1614/1617 BKN014
BECMG 1617/1619 BKN012
TEMPO 1618/1619 BKN008
Nessun NOTAM noto per questo aeroporto.



MetMap, La meteo Aeronautica in un colpo d'occhio ! - Copyright ORBIFLY Dicembre 2007 - Disclaimer

ORBIFLY MET'MAP TEAM :

Programmazione e sviluppo : Alexandra Zaïnal
Concezione e sviluppo : Baudouin d'Aumeries
Co-Programmazione e sviluppo : Marc-Olivier Méhu
Supporto tecnico e logistico : Manuel Goepfert
Aiuto per la traduzione : Arnaldo La Scala

Contatto : metmap@orbifly.com




FONTI E CREDITI :

   NOAA